createdAt,value
2022-11-10T00:01:12.841Z,9.53
2022-11-10T00:06:33.287Z,10.60
2022-11-10T00:11:54.936Z,10.50
2022-11-10T00:17:15.578Z,7.00
2022-11-10T00:22:36.415Z,11.60
2022-11-10T00:27:59.996Z,5.60
2022-11-10T00:33:20.390Z,7.90
2022-11-10T00:38:41.199Z,14.97
2022-11-10T00:44:02.934Z,5.60
2022-11-10T00:49:23.464Z,12.00
2022-11-10T00:54:43.953Z,12.70
2022-11-10T01:00:07.417Z,8.37
2022-11-10T01:05:27.566Z,10.13
2022-11-10T01:10:47.676Z,9.37
2022-11-10T01:16:10.944Z,14.20
2022-11-10T01:21:31.431Z,7.37
2022-11-10T01:26:51.878Z,14.53
2022-11-10T01:32:13.666Z,11.80
2022-11-10T01:37:34.227Z,8.40
2022-11-10T01:42:56.223Z,9.13
2022-11-10T01:48:21.828Z,12.13
2022-11-10T01:53:43.992Z,14.60
2022-11-10T01:59:09.825Z,13.63
2022-11-10T02:04:31.591Z,11.83
2022-11-10T02:09:52.898Z,10.03
2022-11-10T02:15:14.882Z,11.57
2022-11-10T02:20:36.727Z,7.50
2022-11-10T02:25:58.632Z,15.50
2022-11-10T02:31:18.786Z,13.47
2022-11-10T02:36:39.198Z,15.07
2022-11-10T02:42:00.990Z,12.20
2022-11-10T02:47:21.597Z,9.00
2022-11-10T02:52:42.324Z,11.73
2022-11-10T02:58:03.974Z,12.27
2022-11-10T03:03:24.673Z,13.13
2022-11-10T03:08:45.325Z,13.50
2022-11-10T03:14:06.941Z,21.77
2022-11-10T03:19:27.332Z,15.97
2022-11-10T03:24:47.741Z,16.40
2022-11-10T03:30:10.432Z,11.63
2022-11-10T03:35:30.927Z,15.13
2022-11-10T03:41:17.738Z,14.27
2022-11-10T03:46:33.224Z,12.20
2022-11-10T03:51:53.527Z,11.23
2022-11-10T03:57:14.207Z,16.97
2022-11-10T04:02:35.727Z,19.90
2022-11-10T04:08:16.218Z,18.60
2022-11-10T04:13:55.235Z,18.40
2022-11-10T04:19:17.231Z,12.90
2022-11-10T04:24:37.777Z,16.50
2022-11-10T04:29:58.072Z,14.67
2022-11-10T04:35:20.720Z,22.80
2022-11-10T04:40:41.029Z,18.40
2022-11-10T04:46:01.706Z,19.07
2022-11-10T04:51:25.039Z,22.57
2022-11-10T04:56:45.278Z,20.93
2022-11-10T05:02:05.864Z,19.50
2022-11-10T05:07:27.492Z,19.93
2022-11-10T05:12:48.128Z,15.50
2022-11-10T05:18:08.437Z,20.00
2022-11-10T05:23:39.202Z,23.53
2022-11-10T05:28:59.926Z,26.70
2022-11-10T05:34:20.069Z,22.27
2022-11-10T05:39:41.736Z,23.37
2022-11-10T05:45:02.232Z,18.83
2022-11-10T05:50:22.633Z,22.80
2022-11-10T05:55:44.199Z,23.60
2022-11-10T06:01:05.056Z,31.10
2022-11-10T06:06:25.559Z,22.70
2022-11-10T06:11:47.222Z,24.90
2022-11-10T06:17:07.538Z,24.70
2022-11-10T06:22:27.958Z,23.83
2022-11-10T06:27:49.868Z,25.70
2022-11-10T06:33:10.056Z,22.93
2022-11-10T06:38:30.606Z,28.70
2022-11-10T06:43:52.290Z,22.27
2022-11-10T06:49:13.035Z,23.47
2022-11-10T06:54:33.401Z,25.30
2022-11-10T06:59:55.020Z,19.00
2022-11-10T07:05:15.433Z,26.23
2022-11-10T07:10:36.314Z,25.40
2022-11-10T07:15:57.802Z,23.47
2022-11-10T07:21:18.273Z,22.47
2022-11-10T07:26:38.949Z,21.77
2022-11-10T07:32:00.703Z,24.63
2022-11-10T07:37:21.172Z,21.83
2022-11-10T07:42:41.584Z,19.07
2022-11-10T07:48:04.377Z,25.70
2022-11-10T07:53:25.115Z,23.33
2022-11-10T07:58:46.944Z,20.33
2022-11-10T08:04:08.905Z,23.77
2022-11-10T08:09:29.200Z,19.50
2022-11-10T08:14:49.813Z,21.00
2022-11-10T08:20:11.834Z,24.33
2022-11-10T08:25:35.255Z,21.00
2022-11-10T08:30:56.199Z,23.13
2022-11-10T08:36:17.739Z,25.47
2022-11-10T08:41:37.943Z,14.27
2022-11-10T08:46:58.453Z,18.03
2022-11-10T08:52:20.087Z,19.30
2022-11-10T08:57:40.255Z,18.30
2022-11-10T09:03:04.434Z,15.97
2022-11-10T09:08:26.223Z,15.77
2022-11-10T09:13:46.358Z,21.87
2022-11-10T09:19:06.570Z,18.13
2022-11-10T09:24:31.307Z,25.13
2022-11-10T09:29:51.841Z,19.27
2022-11-10T09:35:13.153Z,22.47
2022-11-10T09:40:43.384Z,20.67
2022-11-10T09:46:06.361Z,22.07
2022-11-10T09:51:27.782Z,15.70
2022-11-10T09:56:49.193Z,21.53
2022-11-10T10:02:16.309Z,17.60
2022-11-10T10:07:40.033Z,18.97
2022-11-10T10:13:10.220Z,17.53
2022-11-10T10:18:34.052Z,22.80
2022-11-10T10:24:15.259Z,20.67
2022-11-10T10:29:39.617Z,16.67
2022-11-10T10:34:59.739Z,14.30
2022-11-10T10:40:20.868Z,19.50
2022-11-10T10:45:42.826Z,13.77
2022-11-10T10:51:03.128Z,18.77
2022-11-10T10:56:25.386Z,23.67
2022-11-10T11:01:47.172Z,24.17
2022-11-10T11:07:20.146Z,13.43
2022-11-10T11:12:40.792Z,17.00
2022-11-10T11:18:03.072Z,15.17
2022-11-10T11:23:38.147Z,15.13
2022-11-10T11:29:03.237Z,13.30
2022-11-10T11:34:26.797Z,14.87
2022-11-10T11:39:53.356Z,14.60
2022-11-10T11:45:16.893Z,17.10
2022-11-10T11:50:41.039Z,20.93
2022-11-10T11:56:07.594Z,19.73
2022-11-10T12:01:44.267Z,15.93
2022-11-10T12:07:13.188Z,20.00
2022-11-10T12:12:48.023Z,11.80
2022-11-10T12:18:13.379Z,20.17
2022-11-10T12:23:39.019Z,14.40
2022-11-10T12:29:03.087Z,12.27
2022-11-10T12:34:29.294Z,15.27
2022-11-10T12:39:54.390Z,17.07
2022-11-10T12:45:18.799Z,9.53
2022-11-10T12:50:41.995Z,21.63
2022-11-10T12:56:06.425Z,21.40
2022-11-10T13:01:27.454Z,12.47
2022-11-10T13:06:48.941Z,14.50
2022-11-10T13:12:18.397Z,14.80
2022-11-10T13:17:54.424Z,9.00
2022-11-10T13:23:25.221Z,16.00
2022-11-10T13:29:02.641Z,15.40
2022-11-10T13:34:33.222Z,9.30
2022-11-10T13:39:53.716Z,14.20
2022-11-10T13:45:28.790Z,14.83
2022-11-10T13:50:50.899Z,11.07
2022-11-10T13:56:17.010Z,19.57
2022-11-10T14:01:38.763Z,10.07
2022-11-10T14:06:59.204Z,9.80
2022-11-10T14:12:23.645Z,16.67
2022-11-10T14:17:49.576Z,11.27
2022-11-10T14:23:13.529Z,11.73
2022-11-10T14:28:34.455Z,17.17
2022-11-10T14:33:57.099Z,12.97
2022-11-10T14:39:17.389Z,13.73
2022-11-10T14:44:37.807Z,13.67
2022-11-10T14:50:16.642Z,13.67
2022-11-10T14:55:36.897Z,16.30
2022-11-10T15:00:57.131Z,18.57
2022-11-10T15:06:18.936Z,21.60
2022-11-10T15:11:40.287Z,16.30
2022-11-10T15:17:01.122Z,21.20
2022-11-10T15:22:29.498Z,22.97
2022-11-10T15:27:56.526Z,24.93
2022-11-10T15:33:25.409Z,26.17
2022-11-10T15:39:03.105Z,27.70
2022-11-10T15:44:24.378Z,29.97
2022-11-10T15:49:44.694Z,32.27
2022-11-10T15:55:19.334Z,51.87
2022-11-10T16:00:40.353Z,32.77
2022-11-10T16:06:01.043Z,30.33
2022-11-10T16:11:25.983Z,17.73
2022-11-10T16:16:47.721Z,16.77
2022-11-10T16:22:09.834Z,22.17
2022-11-10T16:27:34.398Z,21.97
2022-11-10T16:32:55.318Z,22.10
2022-11-10T16:38:17.720Z,16.17
2022-11-10T16:43:39.577Z,17.47
2022-11-10T16:49:00.926Z,16.90
2022-11-10T16:54:21.653Z,14.10
2022-11-10T16:59:45.788Z,16.27
2022-11-10T17:05:06.731Z,13.10
2022-11-10T17:10:27.430Z,18.63
2022-11-10T17:15:49.348Z,15.33
2022-11-10T17:21:10.967Z,20.00
2022-11-10T17:26:31.411Z,12.20
2022-11-10T17:31:54.084Z,10.20
2022-11-10T17:37:14.721Z,16.13
2022-11-10T17:42:35.170Z,22.37
2022-11-10T17:47:57.037Z,16.37
2022-11-10T17:53:19.498Z,13.60
2022-11-10T17:58:40.443Z,12.60
2022-11-10T18:04:02.737Z,7.60
2022-11-10T18:09:24.402Z,28.83
2022-11-10T18:14:45.031Z,30.60
2022-11-10T18:20:08.390Z,55.67
2022-11-10T18:25:29.185Z,58.33
2022-11-10T18:30:49.692Z,38.13
2022-11-10T18:36:11.951Z,21.10
2022-11-10T18:41:50.532Z,22.30
2022-11-10T18:47:12.220Z,22.47
2022-11-10T18:52:34.117Z,17.30
2022-11-10T18:57:54.739Z,22.60
2022-11-10T19:03:15.232Z,24.50
2022-11-10T19:08:37.303Z,20.63
2022-11-10T19:13:58.577Z,11.07
2022-11-10T19:19:18.869Z,17.10
2022-11-10T19:25:00.681Z,15.03
2022-11-10T19:30:21.547Z,16.60
2022-11-10T19:35:42.705Z,18.23
2022-11-10T19:41:05.396Z,14.47
2022-11-10T19:46:27.675Z,13.67
2022-11-10T19:51:48.981Z,48.83
2022-11-10T19:57:11.161Z,24.40
2022-11-10T20:02:31.470Z,15.13
2022-11-10T20:08:10.350Z,17.50
2022-11-10T20:13:32.599Z,16.97
2022-11-10T20:18:53.095Z,16.13
2022-11-10T20:24:13.908Z,14.73
2022-11-10T20:29:36.284Z,10.97
2022-11-10T20:34:56.897Z,15.10
2022-11-10T20:40:42.943Z,14.13
2022-11-10T20:45:59.144Z,15.70
2022-11-10T20:51:20.136Z,12.10
2022-11-10T20:56:40.806Z,11.27
2022-11-10T21:02:02.639Z,16.47
2022-11-10T21:07:23.294Z,10.57
2022-11-10T21:12:49.663Z,11.70
2022-11-10T21:18:11.536Z,11.37
2022-11-10T21:23:32.367Z,16.80
2022-11-10T21:28:53.397Z,9.33
2022-11-10T21:34:15.340Z,13.70
2022-11-10T21:39:36.072Z,16.73
2022-11-10T21:44:56.828Z,13.40
2022-11-10T21:50:18.868Z,10.60
2022-11-10T21:55:39.785Z,16.17
2022-11-10T22:01:00.821Z,9.93
2022-11-10T22:06:22.611Z,7.70
2022-11-10T22:12:01.472Z,11.47
2022-11-10T22:17:40.780Z,10.23
2022-11-10T22:23:02.819Z,12.03
2022-11-10T22:28:23.199Z,8.87
2022-11-10T22:33:43.852Z,12.20
2022-11-10T22:39:05.998Z,12.90
2022-11-10T22:44:26.303Z,10.83
2022-11-10T22:49:46.822Z,8.70
2022-11-10T22:55:09.433Z,12.73
2022-11-10T23:00:29.782Z,7.77
2022-11-10T23:05:55.096Z,13.83
2022-11-10T23:11:19.625Z,13.77
2022-11-10T23:16:40.183Z,16.00
2022-11-10T23:22:00.562Z,12.03
2022-11-10T23:27:22.257Z,19.87
2022-11-10T23:32:42.591Z,13.53
2022-11-10T23:38:02.904Z,9.70
2022-11-10T23:43:25.293Z,8.40
2022-11-10T23:48:46.614Z,11.63
2022-11-10T23:54:07.212Z,6.73
2022-11-10T23:59:28.933Z,7.07
